Time;durP1;ratioP1;P1;durP2;ratioP2;P2;SDS_P1;SDS_P2;PMS_P1;PMS_P2;Temp;Humidity;BMP_temperature;BMP_pressure;BME280_temperature;BME280_humidity;BME280_pressure;Samples;Min_cycle;Max_cycle;Signal;HPM_P1;HPM_P2
2022/03/18 00:01:06;;;;;;;40.03;33.03;;;9.90;99.90;;;;;;10364352;28;20579;-83
2022/03/18 00:06:09;;;;;;;37.70;32.83;;;9.90;99.90;;;;;;10347045;28;20273;-86
2022/03/18 00:11:11;;;;;;;37.63;32.97;;;9.90;99.90;;;;;;10365496;28;20202;-86
2022/03/18 00:16:15;;;;;;;37.10;31.60;;;9.90;99.90;;;;;;10365087;28;20227;-85
2022/03/18 00:21:17;;;;;;;36.13;30.17;;;9.90;99.90;;;;;;10365856;28;20198;-85
2022/03/18 00:26:19;;;;;;;35.50;31.80;;;9.90;99.90;;;;;;10349421;28;20280;-85
2022/03/18 00:31:23;;;;;;;34.47;28.80;;;9.90;99.90;;;;;;10349904;28;20229;-86
2022/03/18 00:36:25;;;;;;;32.30;28.90;;;9.90;99.90;;;;;;10348672;28;20313;-86
2022/03/18 00:41:27;;;;;;;31.10;27.80;;;9.90;99.90;;;;;;10353915;28;20250;-84
2022/03/18 00:46:31;;;;;;;30.23;27.03;;;9.90;99.90;;;;;;10352459;28;20226;-84
2022/03/18 00:56:52;;;;;;;31.40;27.30;;;9.90;99.90;;;;;;10357426;28;20297;-86
2022/03/18 01:01:56;;;;;;;29.47;26.27;;;9.90;99.90;;;;;;10361199;28;20230;-85
2022/03/18 01:06:58;;;;;;;28.10;25.30;;;9.90;99.90;;;;;;10361906;28;20218;-82
2022/03/18 01:12:03;;;;;;;28.33;25.37;;;10.00;99.90;;;;;;10376868;28;20221;-85
2022/03/18 01:17:06;;;;;;;26.90;24.17;;;10.00;99.90;;;;;;10376991;28;20231;-84
2022/03/18 01:22:10;;;;;;;26.33;23.63;;;9.90;99.90;;;;;;10370861;28;20191;-84
2022/03/18 01:27:12;;;;;;;30.57;24.07;;;10.00;99.90;;;;;;10372490;28;20666;-85
2022/03/18 01:32:15;;;;;;;27.03;24.13;;;10.00;99.90;;;;;;10371468;28;20206;-86
2022/03/18 01:37:17;;;;;;;27.10;24.30;;;10.00;99.90;;;;;;10390163;28;20214;-85
2022/03/18 01:42:19;;;;;;;27.80;24.80;;;10.00;99.90;;;;;;10375125;28;20282;-85
2022/03/18 01:47:24;;;;;;;27.03;22.10;;;10.00;99.90;;;;;;10380721;28;20234;-84
2022/03/18 01:52:26;;;;;;;25.73;23.00;;;10.00;99.90;;;;;;10369751;28;20209;-83
2022/03/18 01:57:28;;;;;;;26.43;22.23;;;10.00;99.90;;;;;;10367861;28;20229;-83
2022/03/18 02:02:34;;;;;;;24.53;21.97;;;10.00;99.90;;;;;;10349369;28;20215;-83
2022/03/18 02:07:37;;;;;;;26.10;23.40;;;10.00;99.90;;;;;;10371792;28;20217;-83
2022/03/18 02:12:41;;;;;;;25.20;22.60;;;10.00;99.90;;;;;;10391607;28;20209;-84
2022/03/18 02:17:44;;;;;;;23.20;20.90;;;10.00;99.90;;;;;;10350593;28;20574;-83
2022/03/18 02:22:48;;;;;;;24.03;21.67;;;10.00;99.90;;;;;;10347136;28;20202;-83
2022/03/18 02:27:57;;;;;;;25.60;22.20;;;10.00;99.90;;;;;;10375673;28;20226;-83
2022/03/18 02:33:00;;;;;;;23.30;20.80;;;10.00;99.90;;;;;;10359723;28;20203;-83
2022/03/18 02:38:04;;;;;;;25.53;22.97;;;10.00;99.90;;;;;;10375765;28;20674;-83
2022/03/18 02:43:06;;;;;;;23.20;20.83;;;10.00;99.90;;;;;;10375858;28;20244;-83
2022/03/18 02:48:08;;;;;;;23.53;20.13;;;10.00;99.90;;;;;;10357103;28;20586;-83
2022/03/18 02:53:11;;;;;;;23.60;20.20;;;10.00;99.90;;;;;;10356808;28;20749;-83
2022/03/18 02:58:13;;;;;;;23.20;20.83;;;10.00;99.90;;;;;;10360344;28;20222;-83
2022/03/18 03:03:15;;;;;;;23.43;20.93;;;10.00;99.90;;;;;;10360612;28;20218;-82
2022/03/18 03:08:19;;;;;;;23.67;21.27;;;10.00;99.90;;;;;;10359447;28;20211;-83
2022/03/18 03:13:23;;;;;;;23.50;21.03;;;10.00;99.90;;;;;;10344678;28;20240;-84
2022/03/18 03:18:26;;;;;;;21.60;19.43;;;10.00;99.90;;;;;;10378576;28;20245;-83
2022/03/18 03:23:30;;;;;;;23.90;20.70;;;10.10;99.90;;;;;;10370452;28;20207;-84
2022/03/18 03:28:32;;;;;;;22.67;20.10;;;10.10;99.90;;;;;;10347887;28;20201;-85
2022/03/18 03:33:34;;;;;;;21.67;19.50;;;10.10;99.90;;;;;;10350374;28;20215;-85
2022/03/18 03:38:37;;;;;;;22.30;19.90;;;10.10;99.90;;;;;;10351474;28;20702;-85
2022/03/18 03:43:39;;;;;;;23.87;21.37;;;10.00;99.90;;;;;;10349691;28;20228;-84
2022/03/18 03:48:41;;;;;;;20.10;18.13;;;10.00;99.90;;;;;;10382710;28;20198;-86
2022/03/18 03:53:45;;;;;;;21.47;19.23;;;10.00;99.90;;;;;;10366968;28;20313;-85
2022/03/18 03:58:48;;;;;;;22.10;19.83;;;10.00;99.90;;;;;;10349806;28;20286;-86
2022/03/18 04:03:51;;;;;;;20.80;18.70;;;10.00;99.90;;;;;;10365233;28;20496;-85
2022/03/18 04:08:54;;;;;;;23.83;20.30;;;10.00;99.90;;;;;;10350362;28;20203;-86
2022/03/18 04:13:56;;;;;;;21.70;19.57;;;10.00;99.90;;;;;;10400044;28;20233;-84
2022/03/18 04:18:58;;;;;;;22.03;19.47;;;10.00;99.90;;;;;;10406951;28;20237;-84
2022/03/18 04:24:02;;;;;;;22.47;20.10;;;10.00;99.90;;;;;;10374897;28;20317;-83
2022/03/18 04:29:07;;;;;;;22.50;20.10;;;10.00;99.90;;;;;;10359875;28;20202;-86
2022/03/18 04:34:09;;;;;;;25.10;22.60;;;10.00;99.90;;;;;;10369148;28;20226;-85
2022/03/18 04:39:12;;;;;;;21.60;19.40;;;10.00;99.90;;;;;;10392269;28;20297;-83
2022/03/18 04:44:14;;;;;;;21.97;19.30;;;10.10;99.90;;;;;;10381840;28;20222;-85
2022/03/18 04:49:17;;;;;;;22.00;19.70;;;10.10;99.90;;;;;;10363262;28;20207;-84
2022/03/18 04:54:20;;;;;;;21.83;19.50;;;10.10;99.90;;;;;;10357573;28;20230;-85
2022/03/18 04:59:23;;;;;;;21.37;19.07;;;10.10;99.90;;;;;;10374921;28;20694;-84
2022/03/18 05:04:25;;;;;;;22.13;19.70;;;10.10;99.90;;;;;;10357682;28;20215;-84
2022/03/18 05:09:29;;;;;;;23.23;20.83;;;10.10;99.90;;;;;;10356531;28;20640;-85
2022/03/18 05:14:34;;;;;;;22.20;19.93;;;10.10;99.90;;;;;;10356765;28;20252;-85
2022/03/18 05:19:36;;;;;;;22.20;19.90;;;10.00;99.90;;;;;;10370636;28;20633;-83
2022/03/18 05:24:40;;;;;;;23.10;20.67;;;10.00;99.90;;;;;;10351040;28;20229;-82
2022/03/18 05:29:42;;;;;;;25.13;21.23;;;10.00;99.90;;;;;;10360491;28;20569;-85
2022/03/18 05:34:44;;;;;;;23.30;20.50;;;10.10;99.90;;;;;;10356952;28;20245;-85
2022/03/18 05:39:47;;;;;;;23.00;20.70;;;10.10;99.90;;;;;;10360052;28;20260;-86
2022/03/18 05:44:49;;;;;;;25.50;21.70;;;10.10;99.90;;;;;;10393919;28;20309;-83
2022/03/18 05:49:52;;;;;;;22.90;20.30;;;10.10;99.90;;;;;;10373992;28;20195;-85
2022/03/18 05:54:56;;;;;;;22.73;20.30;;;10.10;99.90;;;;;;10359653;28;20236;-83
2022/03/18 05:59:59;;;;;;;24.93;22.13;;;10.10;99.90;;;;;;10374248;28;20222;-85
2022/03/18 06:05:02;;;;;;;24.77;21.90;;;10.10;99.90;;;;;;10394332;28;20277;-86
2022/03/18 06:15:26;;;;;;;24.03;21.43;;;10.10;99.90;;;;;;10361521;28;20231;-86
2022/03/18 06:20:30;;;;;;;24.20;21.53;;;10.00;99.90;;;;;;10358373;28;20259;-85
2022/03/18 06:25:33;;;;;;;27.90;23.83;;;10.00;99.90;;;;;;10368365;28;20246;-84
2022/03/18 06:30:35;;;;;;;23.30;20.03;;;10.00;99.90;;;;;;10376101;28;20191;-87
2022/03/18 06:35:38;;;;;;;25.53;21.90;;;10.00;99.90;;;;;;10357350;28;20629;-86
2022/03/18 06:40:42;;;;;;;23.53;21.07;;;10.00;99.90;;;;;;10344067;28;20222;-86
2022/03/18 06:45:45;;;;;;;25.03;22.10;;;10.00;99.90;;;;;;10344490;28;20223;-85
2022/03/18 06:50:47;;;;;;;24.27;21.40;;;10.00;99.90;;;;;;10377381;28;20206;-85
2022/03/18 06:55:51;;;;;;;28.43;25.37;;;10.10;99.90;;;;;;10366893;28;20234;-87
2022/03/18 07:00:53;;;;;;;28.43;24.33;;;10.10;99.90;;;;;;10355363;28;20317;-85
2022/03/18 07:05:55;;;;;;;32.80;27.90;;;10.10;99.90;;;;;;10381482;28;20265;-85
2022/03/18 07:10:59;;;;;;;34.87;27.47;;;10.20;99.90;;;;;;10358733;28;20194;-86
2022/03/18 07:21:17;;;;;;;30.10;26.53;;;10.30;99.90;;;;;;10344773;28;20283;-85
2022/03/18 07:26:21;;;;;;;28.67;25.47;;;10.40;99.90;;;;;;10361366;28;20269;-84
2022/03/18 07:31:23;;;;;;;31.70;28.07;;;10.40;99.90;;;;;;10345327;28;20233;-87
2022/03/18 07:36:25;;;;;;;30.30;27.10;;;10.50;99.90;;;;;;10346480;28;20246;-87
2022/03/18 07:41:29;;;;;;;38.03;30.13;;;10.50;99.90;;;;;;10359483;28;20614;-86
2022/03/18 07:46:31;;;;;;;32.97;29.47;;;10.60;99.90;;;;;;10380255;28;20254;-86
2022/03/18 07:51:33;;;;;;;38.97;31.97;;;10.70;99.90;;;;;;10345746;28;20205;-85
2022/03/18 07:56:36;;;;;;;36.30;30.37;;;10.80;99.90;;;;;;10368675;28;20601;-85
2022/03/18 08:01:40;;;;;;;38.67;32.27;;;10.80;99.90;;;;;;10346728;28;20694;-86
2022/03/18 08:06:43;;;;;;;36.23;31.13;;;10.90;99.90;;;;;;10342705;28;20218;-86
2022/03/18 08:11:47;;;;;;;37.30;32.40;;;10.90;99.90;;;;;;10376060;28;20189;-84
2022/03/18 08:16:50;;;;;;;39.00;33.73;;;11.00;99.90;;;;;;10380178;28;20215;-84
2022/03/18 08:21:52;;;;;;;37.90;32.50;;;11.00;99.90;;;;;;10382486;28;20685;-85
2022/03/18 08:26:55;;;;;;;40.73;33.00;;;11.10;99.90;;;;;;10381731;28;20246;-84
2022/03/18 08:31:57;;;;;;;37.77;33.67;;;11.20;99.90;;;;;;10365208;28;20202;-84
2022/03/18 08:37:00;;;;;;;39.83;33.20;;;11.30;99.90;;;;;;10380238;28;20623;-87
2022/03/18 08:42:04;;;;;;;33.90;29.73;;;11.40;99.90;;;;;;10381198;28;20290;-88
2022/03/18 08:47:07;;;;;;;38.23;29.87;;;11.50;99.90;;;;;;10345777;28;20227;-87
2022/03/18 08:52:09;;;;;;;41.33;33.00;;;11.50;99.90;;;;;;10378184;28;20229;-85
2022/03/18 08:57:13;;;;;;;35.73;29.90;;;11.60;99.90;;;;;;10373581;28;20290;-86
2022/03/18 09:02:15;;;;;;;34.90;30.10;;;11.70;99.90;;;;;;10386074;28;20272;-86
2022/03/18 09:07:17;;;;;;;32.27;28.60;;;11.80;99.90;;;;;;10385024;28;20221;-85
2022/03/18 09:12:21;;;;;;;31.73;28.33;;;11.90;99.90;;;;;;10393422;28;20202;-84
2022/03/18 09:17:23;;;;;;;29.83;26.60;;;11.90;99.90;;;;;;10357012;28;20703;-83
2022/03/18 09:22:25;;;;;;;33.20;27.40;;;11.90;99.90;;;;;;10378158;28;20312;-83
2022/03/18 09:27:29;;;;;;;30.30;26.10;;;11.90;99.90;;;;;;10387416;28;20658;-83
2022/03/18 09:32:31;;;;;;;32.50;25.87;;;12.00;99.90;;;;;;10391559;28;20214;-83
2022/03/18 09:37:33;;;;;;;26.23;23.37;;;12.00;99.90;;;;;;10361655;28;20229;-83
2022/03/18 09:42:54;;;;;;;28.70;24.70;;;12.10;99.90;;;;;;10366326;28;20641;-84
2022/03/18 09:47:57;;;;;;;29.43;26.20;;;12.20;99.90;;;;;;10374449;28;20222;-83
2022/03/18 09:53:00;;;;;;;29.70;24.60;;;12.30;99.90;;;;;;10370586;28;20202;-83
2022/03/18 09:58:03;;;;;;;34.13;27.40;;;12.20;99.90;;;;;;10388568;28;20702;-83
2022/03/18 10:03:10;;;;;;;29.10;24.37;;;12.30;99.90;;;;;;10365157;28;20297;-84
2022/03/18 10:08:12;;;;;;;31.90;26.30;;;12.50;99.90;;;;;;10383933;28;20337;-83
2022/03/18 10:13:16;;;;;;;31.60;26.80;;;12.60;99.90;;;;;;10370042;28;20210;-83
2022/03/18 10:18:19;;;;;;;32.40;27.50;;;12.60;99.90;;;;;;10358146;28;20284;-84
2022/03/18 10:23:23;;;;;;;30.50;25.37;;;12.50;99.90;;;;;;10374913;28;20199;-84
2022/03/18 10:28:41;;;;;;;29.50;25.50;;;12.60;99.90;;;;;;10369958;28;20207;-84
2022/03/18 10:39:23;;;;;;;30.23;25.40;;;12.60;99.90;;;;;;10402134;28;20679;-84
2022/03/18 10:44:26;;;;;;;33.30;27.37;;;12.70;99.90;;;;;;10365928;28;20281;-83
2022/03/18 10:49:29;;;;;;;35.47;28.67;;;12.60;99.90;;;;;;10349136;28;20573;-84
2022/03/18 10:54:31;;;;;;;31.07;25.30;;;12.60;99.90;;;;;;10377026;28;20651;-84
2022/03/18 10:59:35;;;;;;;31.67;27.27;;;12.70;99.90;;;;;;10347194;28;20709;-83
2022/03/18 11:04:37;;;;;;;32.83;27.87;;;12.80;99.90;;;;;;10384453;28;20501;-84
2022/03/18 11:15:07;;;;;;;30.93;25.33;;;13.10;99.90;;;;;;10344542;28;20233;-83
2022/03/18 11:20:11;;;;;;;30.20;26.33;;;13.20;99.90;;;;;;10341151;28;20250;-83
2022/03/18 11:25:16;;;;;;;30.20;27.00;;;13.30;99.90;;;;;;10345145;28;20214;-84
2022/03/18 11:30:21;;;;;;;30.97;26.67;;;13.50;99.90;;;;;;10358386;28;20639;-84
2022/03/18 11:35:24;;;;;;;28.10;25.10;;;13.50;99.30;;;;;;10397030;28;20686;-84
2022/03/18 11:40:31;;;;;;;27.87;24.60;;;13.50;99.70;;;;;;10393386;28;20305;-83
2022/03/18 11:45:37;;;;;;;29.93;26.70;;;13.50;99.90;;;;;;10357512;28;20222;-84
2022/03/18 11:50:42;;;;;;;34.83;26.40;;;13.60;99.90;;;;;;10353897;28;20203;-83
2022/03/18 11:55:47;;;;;;;29.60;26.07;;;13.60;99.90;;;;;;10356987;28;20671;-83
2022/03/18 12:00:50;;;;;;;31.03;26.50;;;13.60;98.90;;;;;;10388256;28;20214;-84
2022/03/18 12:05:54;;;;;;;31.73;27.13;;;13.60;98.40;;;;;;10370838;28;20230;-84
2022/03/18 12:11:00;;;;;;;35.60;27.77;;;13.60;99.90;;;;;;10356110;28;20201;-83
2022/03/18 12:16:03;;;;;;;31.13;27.80;;;13.70;99.90;;;;;;10372813;28;20618;-83
2022/03/18 12:21:06;;;;;;;31.83;27.90;;;13.80;98.40;;;;;;10374217;28;20717;-84
2022/03/18 12:26:08;;;;;;;30.63;27.33;;;13.80;99.90;;;;;;10393053;28;20284;-84
2022/03/18 12:31:15;;;;;;;32.80;29.30;;;13.80;99.10;;;;;;10365060;28;20222;-83
2022/03/18 12:36:24;;;;;;;35.10;31.33;;;13.80;97.50;;;;;;10390507;28;20226;-83
2022/03/18 12:41:27;;;;;;;31.80;28.50;;;13.60;97.70;;;;;;10364703;28;20752;-83
2022/03/18 12:46:33;;;;;;;34.20;29.37;;;13.50;97.90;;;;;;10386068;28;20280;-84
2022/03/18 12:51:37;;;;;;;33.53;28.80;;;13.40;97.50;;;;;;10373950;28;20198;-84
2022/03/18 12:56:39;;;;;;;31.00;27.50;;;13.40;98.60;;;;;;10394432;28;20237;-83
2022/03/18 13:01:53;;;;;;;33.07;28.07;;;13.50;97.80;;;;;;10382295;28;20233;-84
2022/03/18 13:06:57;;;;;;;35.23;30.10;;;13.50;98.00;;;;;;10407780;28;20214;-83
2022/03/18 13:12:01;;;;;;;31.37;28.00;;;13.70;98.30;;;;;;10400177;28;20194;-83
2022/03/18 13:17:05;;;;;;;29.60;26.27;;;13.70;97.40;;;;;;10395854;28;20238;-83
2022/03/18 13:22:08;;;;;;;36.87;26.97;;;13.70;98.80;;;;;;10383947;28;20226;-83
2022/03/18 13:27:10;;;;;;;28.37;25.23;;;13.80;99.10;;;;;;10380659;28;20711;-83
2022/03/18 13:37:36;;;;;;;26.93;24.17;;;13.90;97.30;;;;;;10366663;28;20218;-83
2022/03/18 13:42:39;;;;;;;27.60;24.63;;;13.90;96.90;;;;;;10367882;28;20277;-83
2022/03/18 13:47:49;;;;;;;26.87;23.13;;;13.90;98.00;;;;;;10379441;28;20226;-83
2022/03/18 13:52:53;;;;;;;28.97;25.70;;;14.00;97.20;;;;;;10382560;28;20198;-84
2022/03/18 13:57:55;;;;;;;26.70;23.90;;;14.00;97.20;;;;;;10381077;28;20231;-84
2022/03/18 14:03:03;;;;;;;28.50;22.63;;;14.00;98.00;;;;;;10387089;28;20228;-84
2022/03/18 14:08:07;;;;;;;25.27;22.60;;;14.00;96.70;;;;;;10375424;28;20233;-84
2022/03/18 14:13:11;;;;;;;26.60;23.77;;;14.00;96.60;;;;;;10360827;28;20589;-84
2022/03/18 14:18:17;;;;;;;23.33;20.93;;;14.00;96.70;;;;;;10378183;28;20599;-83
2022/03/18 14:23:22;;;;;;;24.30;21.70;;;14.00;95.80;;;;;;10363684;28;20248;-84
2022/03/18 14:28:26;;;;;;;22.63;20.20;;;14.00;96.40;;;;;;10396654;28;20265;-84
2022/03/18 14:33:33;;;;;;;24.13;21.70;;;14.00;96.30;;;;;;10397188;28;20213;-84
2022/03/18 14:38:36;;;;;;;22.03;19.73;;;13.90;94.80;;;;;;10396548;28;20207;-84
2022/03/18 14:43:38;;;;;;;23.07;20.73;;;13.80;94.70;;;;;;10362775;28;20597;-84
2022/03/18 14:48:41;;;;;;;24.90;22.30;;;13.80;96.00;;;;;;10364533;28;20214;-84
2022/03/18 14:53:43;;;;;;;26.07;22.17;;;13.80;96.30;;;;;;10364020;28;20202;-84
2022/03/18 14:58:45;;;;;;;23.70;21.30;;;13.80;96.00;;;;;;10399686;28;20206;-84
2022/03/18 15:03:49;;;;;;;26.03;23.27;;;13.80;97.00;;;;;;10366190;28;20252;-84
2022/03/18 15:08:51;;;;;;;23.30;20.30;;;13.80;95.40;;;;;;10398797;28;20631;-84
2022/03/18 15:13:53;;;;;;;25.07;22.40;;;13.70;95.90;;;;;;10375923;28;20282;-84
2022/03/18 15:18:57;;;;;;;23.20;20.80;;;13.60;96.70;;;;;;10376192;28;20674;-84
2022/03/18 15:23:59;;;;;;;24.33;21.73;;;13.70;97.20;;;;;;10381306;28;20238;-84
2022/03/18 15:29:01;;;;;;;26.20;23.43;;;13.70;97.60;;;;;;10358595;28;20235;-84
2022/03/18 15:34:06;;;;;;;25.30;22.70;;;13.70;95.30;;;;;;10355329;28;20222;-84
2022/03/18 15:39:08;;;;;;;26.40;23.70;;;13.60;96.90;;;;;;10370567;28;20269;-84
2022/03/18 15:44:12;;;;;;;25.03;22.43;;;13.50;96.40;;;;;;10373597;28;20218;-84
2022/03/18 15:49:15;;;;;;;26.00;21.17;;;13.50;95.70;;;;;;10373811;28;20213;-84
2022/03/18 15:54:17;;;;;;;25.03;22.43;;;13.40;96.40;;;;;;10389460;28;20229;-86
2022/03/18 15:59:21;;;;;;;24.77;22.10;;;13.30;95.10;;;;;;10361766;28;20248;-85
2022/03/18 16:04:25;;;;;;;23.73;21.20;;;13.20;95.00;;;;;;10344928;28;20628;-86
2022/03/18 16:09:31;;;;;;;23.80;21.33;;;13.10;95.20;;;;;;10346149;28;20222;-86
2022/03/18 16:14:34;;;;;;;27.00;23.20;;;13.00;95.00;;;;;;10370728;28;20226;-85
2022/03/18 16:19:40;;;;;;;25.00;22.30;;;13.10;94.30;;;;;;10351990;28;20586;-85
2022/03/18 16:24:43;;;;;;;25.10;22.40;;;12.90;95.60;;;;;;10350988;28;20230;-85
2022/03/18 16:29:48;;;;;;;26.60;23.20;;;12.90;95.60;;;;;;10352367;28;20202;-83
2022/03/18 16:34:53;;;;;;;27.30;23.60;;;12.90;94.00;;;;;;10353742;28;20229;-85
2022/03/18 16:39:55;;;;;;;30.13;24.97;;;12.80;95.10;;;;;;10374189;28;20505;-85
2022/03/18 16:44:58;;;;;;;27.03;24.20;;;12.70;95.70;;;;;;10363225;28;20581;-87
2022/03/18 16:50:05;;;;;;;27.83;25.03;;;12.60;95.70;;;;;;10358784;28;20199;-84
2022/03/18 16:55:08;;;;;;;26.00;23.30;;;12.60;95.40;;;;;;10381956;28;20716;-85
2022/03/18 17:00:12;;;;;;;30.23;25.20;;;12.50;96.30;;;;;;10354783;28;20218;-85
2022/03/18 17:05:16;;;;;;;28.43;25.43;;;12.40;96.80;;;;;;10358682;28;20342;-86
2022/03/18 17:10:20;;;;;;;27.53;24.67;;;12.40;96.40;;;;;;10363703;28;20675;-82
2022/03/18 17:15:23;;;;;;;27.77;24.83;;;12.30;96.20;;;;;;10341471;28;20220;-86
2022/03/18 17:20:26;;;;;;;27.77;24.87;;;12.30;96.10;;;;;;10349743;28;20234;-84
2022/03/18 17:25:28;;;;;;;29.83;26.67;;;12.20;97.10;;;;;;10370625;28;20222;-83
2022/03/18 17:30:31;;;;;;;29.00;26.00;;;12.10;97.40;;;;;;10383225;28;20212;-85
2022/03/18 17:35:34;;;;;;;30.87;27.17;;;12.10;97.10;;;;;;10361810;28;20254;-87
2022/03/18 17:40:36;;;;;;;31.00;27.77;;;12.00;96.80;;;;;;10395308;28;20214;-81
2022/03/18 17:45:39;;;;;;;30.03;26.77;;;11.90;97.50;;;;;;10338434;28;20285;-83
2022/03/18 17:50:44;;;;;;;32.77;29.23;;;11.90;99.00;;;;;;10363190;28;20203;-82
2022/03/18 17:55:46;;;;;;;31.93;28.50;;;11.80;98.20;;;;;;10342843;28;20230;-80
2022/03/18 18:00:48;;;;;;;33.37;28.97;;;11.80;98.50;;;;;;10333705;28;20818;-83
2022/03/18 18:05:56;;;;;;;33.77;26.90;;;11.70;99.10;;;;;;10380912;28;20309;-83
2022/03/18 18:11:08;;;;;;;33.70;29.70;;;11.70;98.20;;;;;;10354351;28;20195;-84
2022/03/18 18:16:11;;;;;;;32.73;28.90;;;11.70;97.60;;;;;;10350660;28;20293;-84
2022/03/18 18:26:34;;;;;;;37.27;32.67;;;11.50;99.20;;;;;;10380179;28;20715;-84
2022/03/18 18:31:43;;;;;;;33.97;28.73;;;11.40;99.20;;;;;;10374001;28;20223;-83
2022/03/18 18:36:49;;;;;;;36.27;30.70;;;11.40;99.10;;;;;;10356323;28;20697;-83
2022/03/18 18:41:54;;;;;;;34.70;30.20;;;11.30;98.90;;;;;;10371298;28;20212;-83
2022/03/18 18:46:58;;;;;;;36.73;31.10;;;11.30;99.70;;;;;;10369518;28;20694;-84
2022/03/18 18:52:01;;;;;;;40.87;33.20;;;11.30;99.30;;;;;;10346773;28;20253;-83
2022/03/18 18:57:05;;;;;;;40.50;35.60;;;11.20;98.90;;;;;;10361137;28;20231;-82
2022/03/18 19:02:15;;;;;;;39.27;33.57;;;11.20;99.30;;;;;;10344838;28;20690;-86
2022/03/18 19:07:26;;;;;;;40.33;33.97;;;11.10;99.70;;;;;;10350394;28;20223;-83
2022/03/18 19:12:28;;;;;;;43.50;36.93;;;11.00;99.90;;;;;;10365178;28;20221;-83
2022/03/18 19:17:36;;;;;;;40.70;35.67;;;11.10;99.80;;;;;;10368283;28;20601;-83
2022/03/18 19:22:52;;;;;;;42.73;38.03;;;11.00;99.90;;;;;;10363179;28;20281;-83
2022/03/18 19:27:54;;;;;;;43.67;37.87;;;11.00;99.40;;;;;;10351180;28;20229;-83
2022/03/18 19:32:56;;;;;;;43.70;38.20;;;11.00;99.90;;;;;;10373002;28;20198;-81
2022/03/18 19:38:00;;;;;;;46.07;38.37;;;10.90;99.90;;;;;;10366970;28;20321;-83
2022/03/18 19:43:02;;;;;;;45.70;39.17;;;10.90;99.90;;;;;;10337727;28;20218;-85
2022/03/18 19:48:12;;;;;;;44.23;38.53;;;10.80;99.90;;;;;;10346027;28;20242;-85
2022/03/18 19:53:21;;;;;;;48.57;40.63;;;10.80;99.90;;;;;;10379912;28;20206;-84
2022/03/18 20:03:43;;;;;;;45.60;39.10;;;10.70;99.90;;;;;;10338165;28;20226;-84
2022/03/18 20:08:46;;;;;;;47.47;39.07;;;10.70;99.90;;;;;;10350967;28;20209;-83
2022/03/18 20:13:49;;;;;;;43.27;37.97;;;10.70;99.90;;;;;;10385843;28;20581;-83
2022/03/18 20:18:52;;;;;;;47.70;38.13;;;10.60;99.90;;;;;;10377548;28;20728;-84
2022/03/18 20:23:55;;;;;;;50.83;38.77;;;10.60;99.90;;;;;;10382990;28;20699;-83
2022/03/18 20:28:57;;;;;;;47.93;39.20;;;10.50;99.90;;;;;;10363365;28;20225;-83
2022/03/18 20:34:00;;;;;;;44.33;38.63;;;10.50;99.90;;;;;;10353931;28;20226;-83
2022/03/18 20:39:03;;;;;;;47.93;41.37;;;10.50;99.90;;;;;;10354448;28;20339;-83
2022/03/18 20:44:06;;;;;;;47.07;40.73;;;10.40;99.90;;;;;;10381231;28;20617;-83
2022/03/18 20:49:09;;;;;;;48.13;40.53;;;10.40;99.90;;;;;;10343573;28;20217;-83
2022/03/18 20:54:13;;;;;;;50.50;40.50;;;10.40;99.90;;;;;;10361682;28;20226;-84
2022/03/18 20:59:15;;;;;;;46.60;41.33;;;10.30;99.90;;;;;;10359141;28;20230;-85
2022/03/18 21:04:17;;;;;;;43.37;37.23;;;10.30;99.90;;;;;;10356363;28;20226;-85
2022/03/18 21:09:21;;;;;;;48.80;41.77;;;10.20;99.90;;;;;;10344261;28;20234;-84
2022/03/18 21:14:23;;;;;;;47.53;40.47;;;10.20;99.90;;;;;;10376530;28;20728;-83
2022/03/18 21:19:26;;;;;;;48.67;40.20;;;10.10;99.90;;;;;;10348463;28;20215;-85
2022/03/18 21:24:29;;;;;;;49.73;42.53;;;10.00;99.90;;;;;;10344480;28;20320;-84
2022/03/18 21:35:03;;;;;;;46.20;41.07;;;9.90;99.90;;;;;;10263281;28;20595;-84
2022/03/18 21:40:08;;;;;;;48.50;43.10;;;9.80;99.90;;;;;;10358778;28;20237;-83
2022/03/18 21:45:13;;;;;;;49.10;42.93;;;9.70;99.90;;;;;;10354811;28;20224;-83
2022/03/18 21:50:15;;;;;;;52.03;44.00;;;9.70;99.90;;;;;;10390835;28;20207;-83
2022/03/18 21:55:18;;;;;;;53.47;43.53;;;9.70;99.90;;;;;;10373807;28;20242;-83
2022/03/18 22:00:20;;;;;;;49.67;42.00;;;9.60;99.90;;;;;;10371459;28;20210;-83
2022/03/18 22:05:23;;;;;;;50.20;42.33;;;9.60;99.90;;;;;;10394152;28;20230;-83
2022/03/18 22:10:27;;;;;;;51.47;43.57;;;9.60;99.90;;;;;;10378235;28;20211;-83
2022/03/18 22:15:30;;;;;;;53.03;42.60;;;9.60;99.90;;;;;;10354154;28;20653;-83
2022/03/18 22:20:32;;;;;;;47.90;39.97;;;9.60;99.90;;;;;;10356913;28;20652;-83
2022/03/18 22:25:35;;;;;;;53.07;41.00;;;9.50;99.90;;;;;;10356859;28;20416;-83
2022/03/18 22:30:38;;;;;;;56.80;46.47;;;9.40;99.90;;;;;;10349611;28;20207;-82
2022/03/18 22:35:40;;;;;;;49.67;41.73;;;9.30;99.90;;;;;;10353165;28;20230;-83
2022/03/18 22:40:43;;;;;;;57.47;45.93;;;9.20;99.90;;;;;;10341804;28;20261;-83
2022/03/18 22:45:46;;;;;;;54.53;45.47;;;9.10;99.90;;;;;;10382052;28;20226;-87
2022/03/18 22:50:48;;;;;;;59.00;46.73;;;9.10;99.90;;;;;;10379901;28;20199;-85
2022/03/18 22:55:51;;;;;;;54.07;45.53;;;9.00;99.90;;;;;;10395381;28;20261;-84
2022/03/18 23:00:53;;;;;;;53.77;46.37;;;9.00;99.90;;;;;;10369795;28;20218;-86
2022/03/18 23:05:56;;;;;;;57.63;48.93;;;9.00;99.90;;;;;;10356653;28;20720;-82
2022/03/18 23:16:27;;;;;;;62.07;50.90;;;9.00;99.90;;;;;;10375948;28;20601;-82
2022/03/18 23:21:29;;;;;;;64.17;51.30;;;9.00;99.90;;;;;;10378347;28;20217;-83
2022/03/18 23:26:33;;;;;;;61.40;49.20;;;9.10;99.90;;;;;;10352331;28;20230;-82
2022/03/18 23:31:35;;;;;;;62.27;50.80;;;9.10;99.90;;;;;;10363515;28;20203;-84
2022/03/18 23:36:38;;;;;;;59.43;51.50;;;9.10;99.90;;;;;;10351542;28;20296;-84
2022/03/18 23:41:41;;;;;;;65.93;51.70;;;9.10;99.90;;;;;;10355239;28;20582;-84
2022/03/18 23:46:44;;;;;;;60.70;50.70;;;9.10;99.90;;;;;;10396275;28;20230;-84
2022/03/18 23:51:46;;;;;;;61.60;50.83;;;9.10;99.90;;;;;;10349146;28;20204;-84
2022/03/18 23:56:50;;;;;;;64.70;52.47;;;9.00;99.90;;;;;;10357935;28;20265;-85
